• Join FlightAware (Why Join?)
  • Login
  • US Flag 
04:53AM EDT


 

Airport Tracker/Info


-or-


 

Live Flight TrackerFlight Track Log ✈ FLG3780 ✈ 03-May-2013 ✈ KALB - KDTW

Flight Track Log - Related Links

Times and Time Zones

All times are in EDT time to prevent confusion due to time zone crossing. See the FLG3780 flight status page for this flight to view local times or setup timezone preferences in your user account.

Time Position Orientation Groundspeed Altitude Reporting Facility
EDT Latitude Longitude Course Direction KTS MPH feet Rate Location/Type
09:20AM 42.7236 -73.8081 304° West 157 181 1,300  Level Boston Center
09:21AM 42.7069 -73.8075 179° South 170 196 2,000 1,740 Climbing Boston Center
09:22AM 42.7122 -73.8783 276° West 243 280 3,800 2,460 Climbing Boston Center
09:23AM 42.8111 -74.1776 281° West  Level FlightAware Approximate
09:23AM 42.7675 -73.9561 314° West 289 333 7,100  Level Boston Center
09:24AM 42.8297 -74.3078 281° West  Level FlightAware Approximate
09:24AM 42.8164 -74.0336 311° West 284 327 9,700  Level Boston Center
09:25AM 42.8507 -74.4374 283° West  Level FlightAware Approximate
09:25AM 42.8575 -74.0886 316° Northwest 284 327 10,800  Level Boston Center
09:26AM 42.8809 -74.5617 304° West  Level FlightAware Approximate
09:26AM 42.8903 -74.2481 286° West 310 357 12,800  Level Boston Center
09:27AM 42.9089 -74.3875 280° West 358 412 14,600 1,680 Climbing Boston Center
09:28AM 42.9294 -74.5272 281° West 371 427 16,200 1,740 Climbing Boston Center
09:29AM 42.9497 -74.6669 281° West 376 433 18,100 1,200 Climbing Boston Center
09:30AM 42.9681 -74.7953 281° West 376 433 18,900 840 Climbing Boston Center
09:31AM 42.9917 -74.9550 281° West 381 438 20,000 1,020 Climbing Boston Center
09:32AM 43.0167 -75.1350 281° West 392 451 21,000 960 Climbing Boston Center
09:33AM 43.0381 -75.2894 281° West 405 466 22,000 840 Climbing Boston Center
09:34AM 43.0553 -75.4267 280° West 410 472 22,700 840 Climbing Boston Center
09:35AM 43.0783 -75.5814 282° West 415 478 23,700 1,200 Climbing Boston Center
09:36AM 43.0989 -75.7361 280° West 415 478 25,100 1,380 Climbing Boston Center
09:37AM 43.1194 -75.8822 281° West 410 472 26,500 1,140 Climbing Boston Center
09:38AM 43.1381 -76.0283 280° West 405 466 27,400 420 Climbing Boston Center
09:40AM 43.1450 -76.3914 272° West 409 471 28,000 180 Climbing Cleveland Center
09:41AM 43.1319 -76.5544 264° West 417 480 28,000  Level Cleveland Center
09:42AM 43.1147 -76.7178 262° West 430 495 28,000  Level Cleveland Center
09:43AM 43.1014 -76.8808 264° West 430 495 28,000  Level Cleveland Center
09:44AM 43.0875 -77.0436 263° West 430 495 28,000  Level Cleveland Center
09:45AM 43.0717 -77.2067 262° West 430 495 28,000  Level Cleveland Center
09:46AM 43.0575 -77.3722 263° West 435 501 28,000  Level Cleveland Center
09:47AM 43.0411 -77.5350 262° West 435 501 28,000  Level Cleveland Center
09:48AM 43.0267 -77.7006 263° West 440 506 28,000  Level Cleveland Center
09:49AM 43.0097 -77.8631 262° West 440 506 28,000  Level Cleveland Center
09:50AM 42.9928 -78.0286 262° West 440 506 28,000  Level Cleveland Center
09:51AM 42.9775 -78.1939 263° West 440 506 28,000  Level Cleveland Center
09:52AM 42.9600 -78.3592 262° West 446 513 28,000  Level Cleveland Center
09:53AM 42.9442 -78.5214 262° West 446 513 28,000  Level Cleveland Center
09:54AM 42.9239 -78.6864 261° West 446 513 28,000  Level Cleveland Center
09:55AM 42.9014 -78.8458 259° West 446 513 28,000  Level Cleveland Center
09:56AM 42.8789 -79.0050 259° West 446 513 28,000  Level Cleveland Center
09:57AM 42.8558 -79.1672 259° West 446 513 28,000  Level Cleveland Center
09:58AM 42.8306 -79.3319 258° West 446 513 28,000  Level Cleveland Center
09:59AM 42.8094 -79.4908 260° West 446 513 28,000  Level Cleveland Center
10:00AM 42.7836 -79.6553 258° West 446 513 28,000  Level Cleveland Center
10:01AM 42.7600 -79.8142 259° West 446 513 28,000  Level Cleveland Center
10:02AM 42.7464 -79.9811 264° West 446 513 28,000  Level Cleveland Center
10:03AM 42.7386 -80.1281 266° West 446 513 28,000  Level Cleveland Center
10:04AM 42.7328 -80.2919 267° West 441 507 28,000  Level Cleveland Center
10:05AM 42.7247 -80.4561 266° West 441 507 28,000  Level Cleveland Center
10:06AM 42.7208 -80.6200 268° West 441 507 28,000  Level Cleveland Center
10:07AM 42.7122 -80.7811 266° West 441 507 28,000 -420 Level Cleveland Center
10:08AM 42.7036 -80.9308 266° West 441 507 27,200 -1,440 Descending Cleveland Center
10:09AM 42.6819 -81.1256 261° West 441 507 25,200 -1,620 Descending Cleveland Center
10:10AM 42.6603 -81.2975 260° West 456 525 24,000 -600 Descending Cleveland Center
10:11AM 42.6403 -81.4694 261° West 465 535 24,000  Level Cleveland Center
10:12AM 42.6200 -81.6383 261° West 465 535 24,000  Level Cleveland Center
10:13AM 42.6042 -81.7708 261° West 460 529 24,000  Level Cleveland Center
10:14AM 42.5814 -81.9508 260° West 455 524 24,000 -300 Level Cleveland Center
10:15AM 42.5625 -82.1167 261° West 455 524 23,500 -2,460 Descending Cleveland Center
10:16AM 42.5414 -82.2797 260° West 448 516 19,100 -4,200 Descending Cleveland Center
10:17AM 42.5225 -82.4342 261° West 443 510 15,200 -3,360 Descending Cleveland Center
10:18AM 42.4861 -82.6103 254° West 368 423 12,000 -1,860 Descending Cleveland Center
10:19AM 42.4400 -82.7411 245° Southwest 379 436 11,200 -840 Descending Cleveland Center
10:20AM 42.4153 -82.8331 250° West 384 442 10,500 -780 Descending Cleveland Center
10:21AM 42.4192 -82.9514 273° West 347 399 9,800 -1,560 Descending Cleveland Center
10:22AM 42.4144 -83.0694 267° West 306 352 7,500 -2,160 Descending Cleveland Center
10:23AM 42.4033 -83.1111 250° West 273 314 6,800 -1,980 Descending Cleveland Center
10:23AM 42.3853 -83.1639 245° Southwest 286 329 5,500 -2,340 Descending Cleveland Center
10:24AM 42.3697 -83.2053 243° Southwest 262 302 4,500 -2,400 Descending Cleveland Center